Time;durP1;ratioP1;P1;durP2;ratioP2;P2;SDS_P1;SDS_P2;PMS_P1;PMS_P2;Temp;Humidity;BMP_temperature;BMP_pressure;BME280_temperature;BME280_humidity;BME280_pressure;Samples;Min_cycle;Max_cycle;Signal;HPM_P1;HPM_P2
2022/07/18 00:01:03;;;;;;;1.00;0.73;;;14.20;85.80;;;;;;4211759;28;20567;-75
2022/07/18 00:03:05;;;;;;;2.83;0.60;;;14.20;86.00;;;;;;4213254;28;20097;-74
2022/07/18 00:05:07;;;;;;;1.77;0.53;;;14.10;86.30;;;;;;4211856;28;20081;-68
2022/07/18 00:07:10;;;;;;;0.53;0.47;;;14.00;86.70;;;;;;4211928;28;20500;-75
2022/07/18 00:09:11;;;;;;;1.20;0.60;;;13.90;86.90;;;;;;4212425;28;20039;-66
2022/07/18 00:11:13;;;;;;;2.93;0.70;;;13.90;87.20;;;;;;4211958;28;20044;-67
2022/07/18 00:13:14;;;;;;;1.90;1.03;;;13.80;87.90;;;;;;4215499;28;20422;-75
2022/07/18 00:15:16;;;;;;;0.80;0.60;;;13.70;88.00;;;;;;4228575;28;20039;-73
2022/07/18 00:17:17;;;;;;;1.00;0.50;;;13.70;88.30;;;;;;4228757;28;20479;-66
2022/07/18 00:19:18;;;;;;;2.13;0.87;;;13.60;88.50;;;;;;4228246;28;20109;-67
2022/07/18 00:21:20;;;;;;;3.17;0.60;;;13.60;89.10;;;;;;4219872;28;20050;-67
2022/07/18 00:23:21;;;;;;;1.87;0.70;;;13.50;89.00;;;;;;4211464;28;20044;-69
2022/07/18 00:25:22;;;;;;;1.00;0.70;;;13.50;89.30;;;;;;4211876;28;20028;-68
2022/07/18 00:27:23;;;;;;;1.63;0.77;;;13.50;89.60;;;;;;4211294;28;20048;-66
2022/07/18 00:29:25;;;;;;;1.13;0.90;;;13.50;89.70;;;;;;4212025;28;20044;-67
2022/07/18 00:31:27;;;;;;;2.53;0.70;;;13.50;89.50;;;;;;4211492;28;20028;-71
2022/07/18 00:33:28;;;;;;;2.70;0.90;;;13.50;89.70;;;;;;4211635;28;20070;-70
2022/07/18 00:35:29;;;;;;;1.07;0.67;;;13.50;89.90;;;;;;4212779;28;20020;-74
2022/07/18 00:37:30;;;;;;;1.37;0.57;;;13.50;90.00;;;;;;4211311;28;20028;-73
2022/07/18 00:39:31;;;;;;;1.63;0.73;;;13.50;90.00;;;;;;4210494;28;20066;-70
2022/07/18 00:41:32;;;;;;;1.53;1.10;;;13.50;90.00;;;;;;4211440;28;20074;-75
2022/07/18 00:43:34;;;;;;;1.47;0.50;;;13.50;90.00;;;;;;4211573;28;20097;-66
2022/07/18 00:45:35;;;;;;;1.53;0.57;;;13.50;90.10;;;;;;4211572;28;20492;-70
2022/07/18 00:47:36;;;;;;;1.30;1.00;;;13.50;90.10;;;;;;4211378;28;20069;-74
2022/07/18 00:49:37;;;;;;;1.03;0.90;;;13.50;90.00;;;;;;4216144;28;20541;-72
2022/07/18 00:51:38;;;;;;;4.10;0.97;;;13.50;90.10;;;;;;4228318;28;20461;-74
2022/07/18 00:53:39;;;;;;;1.03;0.73;;;13.50;90.10;;;;;;4226111;28;20012;-70
2022/07/18 00:55:43;;;;;;;1.67;0.70;;;13.50;90.10;;;;;;4228226;28;20081;-67
2022/07/18 00:57:44;;;;;;;0.70;0.60;;;13.60;90.10;;;;;;4227723;28;20077;-66
2022/07/18 01:02:06;;;;;;;;;;;13.50;90.10;;;;;;4228319;28;20085;-65
2022/07/18 01:04:07;;;;;;;1.13;0.60;;;13.50;90.50;;;;;;4217141;28;19965;-67
2022/07/18 01:06:08;;;;;;;2.13;0.70;;;13.50;90.00;;;;;;4210530;28;20108;-69
2022/07/18 01:08:09;;;;;;;0.80;0.70;;;13.40;90.00;;;;;;4211929;28;20125;-73
2022/07/18 01:10:11;;;;;;;2.90;0.80;;;13.40;90.20;;;;;;4211184;28;20032;-70
2022/07/18 01:12:12;;;;;;;1.97;0.70;;;13.30;90.30;;;;;;4227081;28;20035;-67
2022/07/18 01:14:14;;;;;;;1.27;0.93;;;13.20;90.40;;;;;;4227608;28;20019;-66
2022/07/18 01:16:17;;;;;;;3.03;0.80;;;13.10;90.60;;;;;;4212928;28;20042;-66
2022/07/18 01:18:18;;;;;;;4.93;0.83;;;13.10;90.80;;;;;;4211031;28;20040;-66
2022/07/18 01:20:19;;;;;;;1.27;0.77;;;13.10;90.80;;;;;;4210494;28;20036;-66
2022/07/18 01:22:21;;;;;;;1.30;0.60;;;13.00;90.80;;;;;;4210914;28;20032;-67
2022/07/18 01:24:22;;;;;;;1.80;0.60;;;13.00;90.90;;;;;;4209292;28;20035;-66
2022/07/18 01:26:24;;;;;;;1.03;0.63;;;13.00;90.90;;;;;;4210787;28;20028;-69
2022/07/18 01:28:25;;;;;;;1.10;0.73;;;12.90;91.00;;;;;;4210688;28;20554;-67
2022/07/18 01:30:26;;;;;;;1.10;0.70;;;12.90;91.20;;;;;;4216544;28;20093;-69
2022/07/18 01:32:27;;;;;;;1.70;0.73;;;12.90;91.20;;;;;;4210242;28;20061;-71
2022/07/18 01:34:28;;;;;;;2.00;0.90;;;12.80;91.30;;;;;;4210896;28;20040;-72
2022/07/18 01:36:30;;;;;;;2.63;0.80;;;12.80;91.40;;;;;;4210541;28;20040;-66
2022/07/18 01:38:32;;;;;;;1.23;0.60;;;12.80;91.50;;;;;;4210573;28;20373;-66
2022/07/18 01:40:33;;;;;;;2.40;0.80;;;12.80;91.60;;;;;;4211671;28;20036;-66
2022/07/18 01:42:34;;;;;;;1.30;0.87;;;12.70;91.60;;;;;;4210606;28;20109;-72
2022/07/18 01:44:37;;;;;;;2.57;0.87;;;12.70;91.60;;;;;;4210453;28;20040;-74
2022/07/18 01:46:38;;;;;;;1.40;0.60;;;12.60;91.80;;;;;;4210547;28;20040;-69
2022/07/18 01:48:40;;;;;;;1.70;0.77;;;12.60;91.90;;;;;;4212193;28;20093;-68
2022/07/18 01:50:42;;;;;;;1.03;0.87;;;12.60;92.20;;;;;;4228119;28;20047;-73
2022/07/18 01:52:43;;;;;;;3.43;1.30;;;12.50;92.10;;;;;;4227830;28;20480;-68
2022/07/18 01:54:44;;;;;;;2.47;0.87;;;12.40;92.30;;;;;;4227279;28;20019;-65
2022/07/18 01:56:45;;;;;;;2.10;0.70;;;12.40;92.40;;;;;;4225177;28;20104;-70
2022/07/18 01:58:46;;;;;;;2.43;0.70;;;12.40;92.50;;;;;;4224995;28;20128;-69
2022/07/18 02:00:47;;;;;;;3.33;0.83;;;12.30;92.60;;;;;;4210193;28;20047;-69
2022/07/18 02:02:49;;;;;;;2.17;0.90;;;12.30;92.80;;;;;;4209843;28;20040;-67
2022/07/18 02:04:59;;;;;;;2.43;0.80;;;12.30;92.70;;;;;;4210607;28;20040;-69
2022/07/18 02:07:00;;;;;;;2.67;1.48;;;12.30;92.90;;;;;;4219331;28;20047;-66
2022/07/18 02:09:01;;;;;;;1.47;0.80;;;12.30;93.00;;;;;;4227114;28;20032;-67
2022/07/18 02:11:03;;;;;;;1.67;0.77;;;12.30;93.00;;;;;;4226754;28;20096;-70
2022/07/18 02:13:04;;;;;;;3.13;0.93;;;12.30;93.00;;;;;;4227068;28;20032;-71
2022/07/18 02:15:08;;;;;;;2.60;0.70;;;12.30;93.00;;;;;;4224406;28;20031;-65
2022/07/18 02:17:09;;;;;;;0.87;0.50;;;12.30;93.10;;;;;;4226595;28;20475;-67
2022/07/18 02:19:11;;;;;;;1.70;0.87;;;12.30;93.20;;;;;;4226643;28;20077;-67
2022/07/18 02:21:13;;;;;;;3.73;1.03;;;12.30;93.30;;;;;;4226539;28;20031;-64
2022/07/18 02:23:14;;;;;;;3.40;0.80;;;12.20;93.30;;;;;;4226856;28;20453;-73
2022/07/18 02:25:16;;;;;;;3.17;0.80;;;12.20;93.30;;;;;;4226760;28;20031;-64
2022/07/18 02:27:17;;;;;;;0.97;0.53;;;12.20;93.40;;;;;;4226682;28;20434;-67
2022/07/18 02:29:18;;;;;;;1.53;0.83;;;12.20;93.40;;;;;;4224854;28;20564;-71
2022/07/18 02:31:19;;;;;;;1.60;1.07;;;12.20;93.60;;;;;;4226882;28;20031;-69
2022/07/18 02:33:21;;;;;;;1.80;0.70;;;12.20;93.70;;;;;;4226437;28;20088;-66
2022/07/18 02:35:22;;;;;;;2.20;0.60;;;12.20;93.90;;;;;;4210609;28;20044;-69
2022/07/18 02:37:23;;;;;;;2.30;0.77;;;12.20;93.80;;;;;;4209760;28;20044;-71
2022/07/18 02:39:24;;;;;;;1.43;0.70;;;12.20;93.90;;;;;;4210342;28;20024;-68
2022/07/18 02:41:25;;;;;;;1.57;0.90;;;12.30;93.70;;;;;;4209452;28;20537;-65
2022/07/18 02:43:27;;;;;;;1.00;0.90;;;12.30;93.70;;;;;;4210209;28;20164;-70
2022/07/18 02:45:28;;;;;;;1.53;0.70;;;12.30;93.90;;;;;;4209401;28;20081;-69
2022/07/18 02:47:29;;;;;;;1.23;0.70;;;12.30;93.90;;;;;;4225196;28;20080;-74
2022/07/18 02:49:31;;;;;;;2.10;0.67;;;12.40;93.80;;;;;;4224997;28;20039;-71
2022/07/18 02:51:32;;;;;;;2.07;0.60;;;12.40;93.70;;;;;;4225133;28;20085;-65
2022/07/18 02:53:33;;;;;;;1.03;0.60;;;12.50;93.60;;;;;;4226491;28;20035;-67
2022/07/18 02:55:35;;;;;;;4.53;1.10;;;12.50;93.60;;;;;;4226446;28;20023;-73
2022/07/18 02:57:36;;;;;;;0.93;0.60;;;12.50;93.50;;;;;;4226263;28;20077;-66
2022/07/18 02:59:38;;;;;;;1.20;0.80;;;12.70;93.40;;;;;;4226384;28;20069;-72
2022/07/18 03:01:39;;;;;;;1.43;0.80;;;12.80;93.20;;;;;;4224561;28;20035;-74
2022/07/18 03:03:40;;;;;;;0.70;0.60;;;12.90;93.10;;;;;;4226374;28;20496;-75
2022/07/18 03:05:42;;;;;;;3.27;1.00;;;13.10;92.90;;;;;;4226349;28;20032;-67
2022/07/18 03:07:43;;;;;;;4.67;0.80;;;13.30;92.60;;;;;;4225986;28;20135;-71
2022/07/18 03:09:44;;;;;;;2.77;0.57;;;13.50;92.40;;;;;;4226894;28;20071;-70
2022/07/18 03:11:46;;;;;;;1.67;0.50;;;13.70;92.10;;;;;;4225888;28;20124;-66
2022/07/18 03:13:47;;;;;;;1.70;1.00;;;13.90;91.80;;;;;;4226508;28;20024;-71
2022/07/18 03:15:48;;;;;;;3.07;0.80;;;14.20;91.50;;;;;;4217542;28;20040;-73
2022/07/18 03:17:49;;;;;;;4.20;0.70;;;14.40;91.20;;;;;;4209575;28;20062;-66
2022/07/18 03:19:51;;;;;;;2.03;1.00;;;14.80;90.80;;;;;;4209266;28;20036;-67
2022/07/18 03:21:52;;;;;;;1.03;0.70;;;15.10;90.40;;;;;;4209262;28;20032;-71
2022/07/18 03:23:53;;;;;;;1.77;0.50;;;15.40;90.10;;;;;;4209831;28;20438;-67
2022/07/18 03:25:54;;;;;;;1.10;0.90;;;15.80;89.40;;;;;;4209759;28;20036;-71
2022/07/18 03:27:55;;;;;;;1.87;1.00;;;16.10;88.30;;;;;;4214026;28;20084;-73
2022/07/18 03:29:56;;;;;;;2.60;1.33;;;16.30;87.60;;;;;;4227993;28;20073;-66
2022/07/18 03:31:57;;;;;;;3.83;0.90;;;16.60;87.10;;;;;;4218400;28;20060;-65
2022/07/18 03:33:59;;;;;;;2.42;0.68;;;16.90;86.10;;;;;;4218800;28;20484;-66
2022/07/18 03:36:00;;;;;;;3.00;0.70;;;17.30;85.30;;;;;;4212515;28;20024;-64
2022/07/18 03:38:01;;;;;;;1.58;0.70;;;17.50;84.70;;;;;;4211696;28;20357;-64
2022/07/18 03:40:03;;;;;;;5.68;1.10;;;17.90;84.00;;;;;;4212283;28;20460;-70
2022/07/18 03:42:04;;;;;;;1.38;0.95;;;18.30;83.00;;;;;;4222952;28;20149;-67
2022/07/18 03:44:06;;;;;;;3.90;1.10;;;18.60;81.70;;;;;;4229202;28;20445;-66
2022/07/18 03:46:08;;;;;;;1.70;0.90;;;18.80;80.90;;;;;;4220680;28;20066;-72
2022/07/18 03:48:09;;;;;;;2.53;0.73;;;19.10;80.40;;;;;;4213349;28;20554;-67
2022/07/18 03:50:10;;;;;;;2.05;0.90;;;19.30;79.80;;;;;;4210768;28;20048;-65
2022/07/18 03:52:11;;;;;;;1.60;0.90;;;19.50;79.30;;;;;;4212128;28;20076;-72
2022/07/18 03:54:12;;;;;;;3.28;0.85;;;19.80;78.80;;;;;;4212136;28;20085;-65
2022/07/18 03:56:14;;;;;;;0.77;0.65;;;20.10;78.00;;;;;;4211830;28;20077;-65
2022/07/18 03:58:15;;;;;;;4.07;0.70;;;20.60;77.20;;;;;;4212990;28;20032;-66
2022/07/18 04:00:16;;;;;;;2.75;0.70;;;21.00;76.20;;;;;;4213275;28;20036;-71
2022/07/18 04:02:17;;;;;;;3.50;0.63;;;21.10;75.50;;;;;;4228570;28;20020;-69
2022/07/18 04:04:18;;;;;;;1.55;0.63;;;21.60;74.80;;;;;;4228310;28;20069;-69
2022/07/18 04:06:19;;;;;;;1.83;0.75;;;21.60;74.00;;;;;;4223835;28;20078;-65
2022/07/18 04:08:21;;;;;;;0.57;0.45;;;21.70;73.80;;;;;;4211712;28;20125;-66
2022/07/18 04:10:22;;;;;;;4.32;0.90;;;21.80;73.40;;;;;;4212184;28;20085;-67
2022/07/18 04:12:23;;;;;;;1.23;0.90;;;21.80;73.20;;;;;;4211018;28;20512;-67
2022/07/18 04:14:24;;;;;;;0.90;0.80;;;22.20;73.00;;;;;;4212052;28;20082;-64
2022/07/18 04:16:25;;;;;;;0.95;0.73;;;22.60;72.10;;;;;;4211387;28;20101;-65
2022/07/18 04:18:26;;;;;;;1.15;0.73;;;23.10;71.10;;;;;;4211857;28;20504;-66
2022/07/18 04:20:28;;;;;;;0.98;0.75;;;23.30;70.30;;;;;;4211491;28;20113;-72
2022/07/18 04:22:29;;;;;;;2.22;0.52;;;23.10;69.90;;;;;;4226560;28;20036;-67
2022/07/18 04:24:30;;;;;;;2.38;0.60;;;23.20;69.90;;;;;;4226119;28;20076;-67
2022/07/18 04:26:31;;;;;;;3.30;0.80;;;23.50;69.40;;;;;;4222057;28;20023;-71
2022/07/18 04:28:32;;;;;;;2.05;0.68;;;24.20;68.50;;;;;;4211367;28;20032;-65
2022/07/18 04:30:35;;;;;;;3.08;0.73;;;24.60;67.60;;;;;;4210931;28;20016;-68
2022/07/18 04:32:37;;;;;;;2.15;0.85;;;25.10;66.80;;;;;;4211468;28;20358;-66
2022/07/18 04:34:38;;;;;;;2.50;0.60;;;25.60;66.10;;;;;;4211196;28;20476;-66
2022/07/18 04:36:39;;;;;;;2.95;1.05;;;25.80;65.50;;;;;;4211568;28;20036;-66
2022/07/18 04:38:41;;;;;;;3.30;0.80;;;25.90;65.00;;;;;;4210536;28;20553;-71
2022/07/18 04:40:42;;;;;;;2.35;1.13;;;25.30;65.00;;;;;;4206551;28;20399;-66
2022/07/18 04:42:44;;;;;;;1.00;0.63;;;25.30;65.50;;;;;;4211218;28;20040;-67
2022/07/18 04:44:45;;;;;;;2.33;0.80;;;25.30;64.70;;;;;;4211018;28;20141;-70
2022/07/18 04:46:46;;;;;;;2.95;1.02;;;25.50;64.30;;;;;;4209895;28;20084;-67
2022/07/18 04:48:47;;;;;;;2.67;0.95;;;25.40;63.90;;;;;;4211864;28;20027;-64
2022/07/18 04:50:48;;;;;;;1.63;0.50;;;25.10;64.10;;;;;;4210154;28;20078;-66
2022/07/18 04:52:50;;;;;;;2.63;0.80;;;24.50;64.60;;;;;;4210826;28;20036;-72
2022/07/18 04:54:51;;;;;;;1.17;0.52;;;24.30;64.70;;;;;;4210392;28;20081;-66
2022/07/18 04:56:52;;;;;;;1.75;0.70;;;24.00;65.30;;;;;;4211179;28;20431;-69
2022/07/18 04:58:53;;;;;;;7.57;1.25;;;24.20;65.00;;;;;;4211090;28;20089;-66
2022/07/18 05:00:55;;;;;;;2.35;0.80;;;24.40;64.70;;;;;;4210870;28;20044;-72
2022/07/18 05:02:57;;;;;;;3.70;1.23;;;24.90;64.50;;;;;;4211104;28;20086;-73
2022/07/18 05:04:58;;;;;;;2.10;0.50;;;25.30;63.70;;;;;;4225564;27;20094;-72
2022/07/18 05:07:00;;;;;;;3.83;1.02;;;25.90;63.00;;;;;;4227452;28;20035;-69
2022/07/18 05:09:01;;;;;;;4.55;0.98;;;26.40;62.40;;;;;;4213683;28;20089;-70
2022/07/18 05:11:02;;;;;;;3.17;0.77;;;26.20;61.80;;;;;;4211915;28;20028;-69
2022/07/18 05:13:03;;;;;;;8.23;0.60;;;25.20;62.20;;;;;;4210273;28;20086;-67
2022/07/18 05:15:07;;;;;;;8.32;0.82;;;25.50;62.80;;;;;;4220610;28;20719;-67
2022/07/18 05:17:08;;;;;;;2.97;0.70;;;25.40;62.70;;;;;;4226831;28;20080;-67
2022/07/18 05:19:09;;;;;;;1.00;0.55;;;25.90;62.40;;;;;;4227069;28;20040;-66
2022/07/18 05:21:11;;;;;;;2.33;0.47;;;26.40;61.60;;;;;;4226747;28;20092;-67
2022/07/18 05:23:15;;;;;;;3.17;1.00;;;26.40;61.20;;;;;;4227335;28;20027;-66
2022/07/18 05:25:16;;;;;;;1.58;0.73;;;26.10;61.10;;;;;;4227179;28;20109;-68
2022/07/18 05:27:17;;;;;;;3.38;0.77;;;26.00;61.40;;;;;;4227368;28;20557;-71
2022/07/18 05:29:18;;;;;;;3.38;0.98;;;25.80;61.50;;;;;;4227135;28;20092;-68
2022/07/18 05:31:19;;;;;;;2.38;0.60;;;25.60;61.60;;;;;;4227419;28;20412;-69
2022/07/18 05:33:21;;;;;;;1.15;0.45;;;25.70;62.00;;;;;;4227257;28;20019;-69
2022/07/18 05:35:22;;;;;;;1.95;0.50;;;25.30;62.00;;;;;;4226804;28;20035;-69
2022/07/18 05:37:23;;;;;;;2.45;1.25;;;25.10;62.50;;;;;;4227281;28;20132;-66
2022/07/18 05:39:25;;;;;;;2.88;0.90;;;24.70;63.10;;;;;;4227285;28;20023;-71
2022/07/18 05:41:26;;;;;;;3.95;0.80;;;24.90;63.00;;;;;;4227067;28;20680;-66
2022/07/18 05:43:28;;;;;;;2.35;0.60;;;25.20;62.50;;;;;;4226618;28;20121;-68
2022/07/18 05:45:29;;;;;;;2.17;0.60;;;26.00;62.20;;;;;;4226964;28;20046;-65
2022/07/18 05:47:30;;;;;;;1.77;0.68;;;26.80;61.20;;;;;;4226423;28;20043;-66
2022/07/18 05:49:32;;;;;;;1.33;0.68;;;27.50;60.20;;;;;;4226864;28;20097;-67
2022/07/18 05:51:33;;;;;;;2.35;0.80;;;27.30;59.90;;;;;;4226409;28;20023;-67
2022/07/18 05:53:34;;;;;;;0.90;0.50;;;27.20;59.70;;;;;;4226052;28;20023;-66
2022/07/18 05:55:35;;;;;;;1.95;0.95;;;27.50;59.60;;;;;;4226400;28;20070;-64
2022/07/18 05:57:36;;;;;;;3.75;0.68;;;28.10;59.20;;;;;;4225576;28;20024;-65
2022/07/18 05:59:38;;;;;;;2.45;0.70;;;28.50;58.90;;;;;;4226493;28;20069;-67
2022/07/18 06:01:39;;;;;;;4.68;0.95;;;28.80;58.60;;;;;;4226434;28;20511;-65
2022/07/18 06:03:40;;;;;;;2.00;0.68;;;29.00;58.20;;;;;;4226534;28;20016;-69
2022/07/18 06:05:41;;;;;;;1.10;0.73;;;28.70;58.20;;;;;;4226309;28;20031;-65
2022/07/18 06:07:42;;;;;;;4.78;0.93;;;28.60;58.10;;;;;;4226289;28;20069;-65
2022/07/18 06:09:44;;;;;;;2.72;0.77;;;28.70;58.00;;;;;;4226538;28;20085;-68
2022/07/18 06:11:45;;;;;;;1.42;0.60;;;29.10;57.60;;;;;;4226686;28;20035;-71
2022/07/18 06:13:46;;;;;;;3.15;1.00;;;29.00;57.40;;;;;;4226109;28;20043;-65
2022/07/18 06:15:47;;;;;;;2.42;0.90;;;28.90;57.50;;;;;;4226355;28;20422;-72
2022/07/18 06:17:49;;;;;;;1.98;0.68;;;28.90;57.50;;;;;;4225903;28;20073;-72
2022/07/18 06:19:50;;;;;;;0.90;0.47;;;29.00;58.00;;;;;;4226248;28;20039;-65
2022/07/18 06:21:52;;;;;;;1.40;0.52;;;29.40;56.80;;;;;;4226033;28;20079;-70
2022/07/18 06:23:53;;;;;;;0.98;0.50;;;29.70;56.30;;;;;;4226794;28;20037;-66
2022/07/18 06:25:56;;;;;;;0.73;0.73;;;29.60;56.40;;;;;;4226162;28;20092;-66
2022/07/18 06:27:57;;;;;;;1.83;0.68;;;29.40;56.30;;;;;;4226201;28;20080;-66
2022/07/18 06:29:59;;;;;;;0.98;0.40;;;29.80;56.20;;;;;;4226448;28;20480;-65
2022/07/18 06:32:00;;;;;;;15.85;1.33;;;30.00;56.00;;;;;;4226319;28;20015;-64
2022/07/18 06:34:01;;;;;;;2.63;0.82;;;30.30;55.40;;;;;;4226389;28;20092;-67
2022/07/18 06:36:02;;;;;;;4.35;0.77;;;30.20;55.10;;;;;;4224761;28;20036;-65
2022/07/18 06:38:03;;;;;;;1.92;0.60;;;29.90;55.50;;;;;;4225895;28;20032;-69
2022/07/18 06:40:05;;;;;;;0.50;0.40;;;29.40;55.60;;;;;;4226308;28;20039;-66
2022/07/18 06:42:07;;;;;;;0.68;0.40;;;29.20;55.80;;;;;;4225530;28;20077;-67
2022/07/18 06:44:08;;;;;;;1.58;0.70;;;29.40;55.60;;;;;;4225905;28;20084;-65
2022/07/18 06:46:09;;;;;;;6.03;0.77;;;29.60;55.10;;;;;;4226275;28;20554;-64
2022/07/18 06:48:10;;;;;;;6.85;0.85;;;29.70;55.10;;;;;;4225829;28;20433;-66
2022/07/18 06:50:13;;;;;;;5.35;1.27;;;29.80;55.00;;;;;;4226303;28;20094;-65
2022/07/18 06:52:15;;;;;;;10.00;1.52;;;29.80;54.80;;;;;;4225761;28;20100;-65
2022/07/18 06:54:16;;;;;;;10.82;2.08;;;29.40;55.20;;;;;;4226424;28;20364;-69
2022/07/18 06:56:18;;;;;;;22.55;3.25;;;29.10;55.50;;;;;;4225909;28;20032;-64
2022/07/18 06:58:19;;;;;;;17.63;3.20;;;29.10;55.60;;;;;;4226217;28;20089;-68
2022/07/18 07:00:20;;;;;;;21.40;3.78;;;29.40;55.30;;;;;;4225945;28;20036;-64
2022/07/18 07:02:21;;;;;;;27.67;4.07;;;28.00;55.50;;;;;;4225932;28;20040;-66
2022/07/18 07:04:22;;;;;;;24.17;3.08;;;27.10;56.40;;;;;;4227703;28;20035;-72
2022/07/18 07:06:23;;;;;;;20.98;3.10;;;26.70;57.30;;;;;;4229429;28;20051;-65
2022/07/18 07:08:24;;;;;;;18.45;2.92;;;25.90;57.70;;;;;;4229310;28;20055;-64
2022/07/18 07:10:29;;;;;;;20.05;2.70;;;25.80;57.90;;;;;;4229554;28;20385;-66
2022/07/18 07:12:37;;;;;;;20.42;3.33;;;25.60;58.00;;;;;;4229144;27;20092;-66
2022/07/18 07:14:38;;;;;;;18.40;3.78;;;26.00;57.90;;;;;;4228851;28;20477;-66
2022/07/18 07:16:39;;;;;;;11.43;1.92;;;26.50;57.50;;;;;;4229223;28;20428;-68
2022/07/18 07:18:40;;;;;;;13.98;2.33;;;26.50;57.30;;;;;;4229068;28;20089;-67
2022/07/18 07:20:41;;;;;;;14.90;2.42;;;26.20;57.50;;;;;;4229273;28;20076;-67
2022/07/18 07:22:44;;;;;;;10.52;2.63;;;26.10;57.80;;;;;;4228518;28;20051;-66
2022/07/18 07:24:46;;;;;;;14.25;3.50;;;26.10;58.00;;;;;;4229377;28;20072;-70
2022/07/18 07:26:48;;;;;;;9.27;2.05;;;25.10;58.80;;;;;;4228932;28;20032;-67
2022/07/18 07:28:49;;;;;;;10.85;1.58;;;24.70;59.80;;;;;;4229329;28;20172;-65
2022/07/18 07:30:50;;;;;;;6.07;1.65;;;24.50;60.30;;;;;;4228911;28;20035;-71
2022/07/18 07:32:52;;;;;;;10.23;1.30;;;24.40;60.40;;;;;;4229061;28;20044;-69
2022/07/18 07:34:53;;;;;;;6.68;1.00;;;24.30;60.60;;;;;;4227156;28;20821;-68
2022/07/18 07:36:54;;;;;;;9.48;1.50;;;24.10;60.80;;;;;;4228796;27;20035;-65
2022/07/18 07:38:56;;;;;;;8.88;1.17;;;24.20;60.90;;;;;;4228719;28;20427;-66
2022/07/18 07:41:01;;;;;;;11.38;1.52;;;24.40;60.80;;;;;;4229115;28;20044;-71
2022/07/18 07:43:06;;;;;;;12.55;1.92;;;24.70;60.60;;;;;;4228587;28;20027;-67
2022/07/18 07:45:08;;;;;;;6.25;1.42;;;25.10;60.60;;;;;;4228624;28;20044;-72
2022/07/18 07:47:09;;;;;;;13.90;2.08;;;25.10;60.30;;;;;;4228512;27;20111;-69
2022/07/18 07:49:11;;;;;;;16.10;1.40;;;25.00;60.00;;;;;;4228306;28;20105;-65
2022/07/18 07:51:12;;;;;;;8.32;1.33;;;24.50;60.30;;;;;;4228687;28;20019;-71
2022/07/18 07:53:13;;;;;;;10.95;1.58;;;24.40;60.90;;;;;;4227956;28;20422;-71
2022/07/18 07:55:14;;;;;;;7.10;0.90;;;24.40;60.90;;;;;;4228744;27;20448;-66
2022/07/18 07:57:15;;;;;;;7.82;0.73;;;24.50;60.90;;;;;;4228110;28;20027;-72
2022/07/18 07:59:17;;;;;;;9.07;1.30;;;24.30;61.30;;;;;;4228266;28;20077;-68
2022/07/18 08:01:19;;;;;;;5.38;1.10;;;24.30;61.30;;;;;;4226352;28;20111;-65
2022/07/18 08:03:20;;;;;;;8.75;0.98;;;24.30;61.40;;;;;;4228513;28;20080;-67
2022/07/18 08:05:22;;;;;;;6.18;1.10;;;24.30;61.20;;;;;;4227955;28;20031;-68
2022/07/18 08:07:24;;;;;;;5.93;0.98;;;24.80;61.00;;;;;;4227813;28;20561;-66
2022/07/18 08:09:25;;;;;;;6.30;1.25;;;25.10;60.50;;;;;;4227687;28;20044;-65
2022/07/18 08:11:26;;;;;;;4.10;0.73;;;25.20;60.40;;;;;;4228385;28;20023;-64
2022/07/18 08:13:27;;;;;;;4.93;1.17;;;25.10;60.40;;;;;;4227970;28;20073;-64
2022/07/18 08:15:28;;;;;;;6.85;0.80;;;25.20;60.60;;;;;;4226765;28;20035;-64
2022/07/18 08:17:30;;;;;;;2.00;0.95;;;25.30;60.70;;;;;;4227992;27;20039;-65
2022/07/18 08:19:31;;;;;;;3.97;0.80;;;25.50;60.30;;;;;;4227563;28;20093;-65
2022/07/18 08:21:32;;;;;;;2.63;0.60;;;25.70;60.10;;;;;;4228102;28;20097;-66
2022/07/18 08:23:33;;;;;;;1.95;1.15;;;25.70;60.00;;;;;;4227489;28;20488;-65
2022/07/18 08:25:37;;;;;;;2.90;0.60;;;25.50;60.30;;;;;;4228265;28;20352;-65
2022/07/18 08:27:39;;;;;;;2.90;0.80;;;25.40;60.50;;;;;;4227298;28;20032;-65
2022/07/18 08:29:40;;;;;;;2.83;0.60;;;25.00;61.00;;;;;;4228056;28;20081;-65
2022/07/18 08:31:41;;;;;;;3.20;0.80;;;24.60;61.40;;;;;;4227476;27;20092;-65
2022/07/18 08:33:42;;;;;;;3.67;0.98;;;24.50;62.00;;;;;;4227882;28;20047;-67
2022/07/18 08:35:43;;;;;;;5.03;1.10;;;24.50;62.10;;;;;;4227383;28;20027;-63
2022/07/18 08:37:44;;;;;;;12.55;2.55;;;24.80;62.00;;;;;;4227864;28;20020;-66
2022/07/18 08:39:46;;;;;;;22.35;2.47;;;25.00;61.90;;;;;;4227712;28;20475;-65
2022/07/18 08:41:50;;;;;;;5.40;0.75;;;25.00;61.90;;;;;;4227957;28;20468;-65
2022/07/18 08:43:51;;;;;;;1.02;0.50;;;24.40;62.20;;;;;;4227772;28;20468;-66
2022/07/18 08:46:04;;;;;;;2.40;0.40;;;24.30;62.30;;;;;;4227760;28;20027;-65
2022/07/18 08:48:05;;;;;;;0.95;0.80;;;24.50;62.40;;;;;;4227630;28;20067;-66
2022/07/18 08:50:07;;;;;;;2.28;0.68;;;24.60;62.30;;;;;;4226098;28;20028;-68
2022/07/18 08:52:08;;;;;;;1.67;0.98;;;25.00;62.20;;;;;;4227806;28;20093;-64
2022/07/18 08:54:10;;;;;;;5.25;0.90;;;25.50;61.90;;;;;;4227304;28;20024;-66
2022/07/18 08:56:11;;;;;;;1.13;0.50;;;26.00;61.30;;;;;;4227450;28;20092;-65
2022/07/18 08:58:14;;;;;;;0.82;0.40;;;26.20;60.60;;;;;;4227269;28;20020;-65
2022/07/18 09:00:16;;;;;;;0.75;0.60;;;26.40;60.20;;;;;;4227744;28;20359;-68
2022/07/18 09:02:17;;;;;;;1.13;0.65;;;26.20;60.00;;;;;;4226672;28;20036;-66
2022/07/18 09:04:43;;;;;;;1.33;0.60;;;25.50;60.40;;;;;;4227302;28;20024;-65
2022/07/18 09:06:50;;;;;;;0.82;0.50;;;25.10;60.90;;;;;;4226567;28;20032;-65
2022/07/18 09:08:59;;;;;;;1.10;0.60;;;25.10;61.00;;;;;;4227647;28;20444;-65
2022/07/18 09:11:02;;;;;;;1.00;0.30;;;25.10;60.80;;;;;;4227466;28;20144;-66
2022/07/18 09:13:03;;;;;;;1.38;0.28;;;25.10;60.10;;;;;;4227453;28;20896;-65
2022/07/18 09:15:13;;;;;;;2.83;1.00;;;25.40;59.10;;;;;;4226812;28;20088;-65
2022/07/18 09:17:21;;;;;;;1.08;0.50;;;25.40;58.40;;;;;;4227462;28;20422;-69
2022/07/18 09:19:22;;;;;;;0.70;0.30;;;25.30;59.00;;;;;;4226672;28;20483;-65
2022/07/18 09:21:23;;;;;;;0.52;0.52;;;25.30;59.20;;;;;;4227385;28;20085;-64
2022/07/18 09:23:30;;;;;;;1.63;0.47;;;25.40;59.00;;;;;;4226249;28;20097;-65
2022/07/18 09:25:32;;;;;;;0.90;0.50;;;25.70;58.40;;;;;;4227153;28;20089;-69
2022/07/18 09:27:38;;;;;;;0.65;0.43;;;25.80;58.00;;;;;;4226408;28;20031;-65
2022/07/18 09:29:40;;;;;;;2.35;0.50;;;26.00;57.70;;;;;;4226896;28;20565;-66
2022/07/18 09:31:49;;;;;;;0.52;0.20;;;26.20;57.60;;;;;;4226397;28;20104;-65
2022/07/18 09:33:53;;;;;;;1.85;0.40;;;26.30;57.50;;;;;;4226697;28;20101;-64
2022/07/18 09:35:55;;;;;;;3.00;0.55;;;26.40;57.70;;;;;;4226362;28;20028;-65
2022/07/18 09:38:05;;;;;;;2.38;0.60;;;26.40;57.60;;;;;;4226600;28;20035;-65
2022/07/18 09:40:21;;;;;;;1.40;0.60;;;26.40;57.40;;;;;;4227044;28;20081;-67
2022/07/18 09:42:22;;;;;;;5.50;0.50;;;26.50;57.60;;;;;;4226998;28;20035;-66
2022/07/18 09:44:23;;;;;;;3.03;0.45;;;26.50;57.60;;;;;;4226592;28;20080;-65
2022/07/18 09:46:24;;;;;;;1.00;0.73;;;26.60;57.20;;;;;;4226366;28;20101;-65
2022/07/18 09:48:27;;;;;;;2.90;1.52;;;26.60;56.40;;;;;;4226519;28;20580;-66
2022/07/18 09:50:41;;;;;;;1.70;0.70;;;26.70;55.90;;;;;;4226296;28;20027;-66
2022/07/18 09:52:42;;;;;;;4.38;0.52;;;26.70;54.80;;;;;;4226650;28;20083;-65
2022/07/18 09:54:44;;;;;;;0.52;0.30;;;26.70;55.60;;;;;;4226561;28;20028;-70
2022/07/18 09:56:45;;;;;;;0.45;0.30;;;26.50;55.50;;;;;;4226822;28;20027;-70
2022/07/18 09:58:54;;;;;;;0.73;0.30;;;26.30;55.20;;;;;;4226262;28;20015;-70
2022/07/18 10:00:58;;;;;;;0.97;0.60;;;26.20;55.10;;;;;;4226486;28;20039;-66
2022/07/18 10:03:01;;;;;;;0.40;0.30;;;26.40;55.30;;;;;;4225857;28;20088;-68
2022/07/18 10:05:03;;;;;;;4.28;0.40;;;26.50;55.00;;;;;;4226505;28;20076;-71
2022/07/18 10:07:05;;;;;;;0.82;0.30;;;26.60;54.90;;;;;;4225886;28;20047;-65
2022/07/18 10:09:06;;;;;;;0.50;0.30;;;26.70;54.50;;;;;;4226319;28;20472;-65
2022/07/18 10:11:08;;;;;;;1.13;0.40;;;26.70;54.10;;;;;;4225165;28;20583;-66
2022/07/18 10:13:10;;;;;;;0.60;0.50;;;26.60;54.20;;;;;;4226398;28;20023;-67
2022/07/18 10:15:11;;;;;;;1.85;0.30;;;26.40;54.20;;;;;;4226017;28;20036;-68
2022/07/18 10:17:13;;;;;;;1.13;0.45;;;26.40;54.30;;;;;;4225985;28;20388;-68
2022/07/18 10:19:14;;;;;;;0.30;0.30;;;26.30;54.40;;;;;;4225923;28;20035;-65
2022/07/18 10:21:19;;;;;;;0.73;0.25;;;26.30;54.60;;;;;;4226362;28;20093;-71
2022/07/18 10:23:23;;;;;;;0.77;0.52;;;26.30;54.30;;;;;;4226159;28;20132;-65
2022/07/18 10:25:24;;;;;;;0.50;0.32;;;26.30;54.00;;;;;;4226327;28;20487;-65
2022/07/18 10:27:25;;;;;;;1.02;0.28;;;26.20;53.70;;;;;;4226140;28;20027;-65
2022/07/18 10:29:26;;;;;;;1.00;0.17;;;26.20;53.40;;;;;;4226048;28;20036;-72
2022/07/18 10:32:01;;;;;;;1.05;0.30;;;26.30;53.60;;;;;;4226194;28;20044;-65
2022/07/18 10:34:08;;;;;;;1.40;0.30;;;26.30;53.40;;;;;;4225953;28;20020;-66
2022/07/18 10:36:14;;;;;;;0.75;0.40;;;26.10;53.30;;;;;;4226069;28;20028;-65